sensor_id;sensor_type;location;lat;lon;timestamp;P1;durP1;ratioP1;P2;durP2;ratioP2
41713;SDS011;27401;47.384;13.666;2023-08-21T00:00:02;4.85;;;4.45;;
41713;SDS011;27401;47.384;13.666;2023-08-21T00:02:29;4.30;;;4.00;;
41713;SDS011;27401;47.384;13.666;2023-08-21T00:04:55;12.27;;;4.63;;
41713;SDS011;27401;47.384;13.666;2023-08-21T00:07:21;5.65;;;5.15;;
41713;SDS011;27401;47.384;13.666;2023-08-21T00:09:46;5.13;;;4.70;;
41713;SDS011;27401;47.384;13.666;2023-08-21T00:12:12;4.97;;;4.57;;
41713;SDS011;27401;47.384;13.666;2023-08-21T00:14:37;4.90;;;4.50;;
41713;SDS011;27401;47.384;13.666;2023-08-21T00:17:03;6.38;;;4.70;;
41713;SDS011;27401;47.384;13.666;2023-08-21T00:19:29;7.47;;;4.88;;
41713;SDS011;27401;47.384;13.666;2023-08-21T00:21:55;4.80;;;4.40;;
41713;SDS011;27401;47.384;13.666;2023-08-21T00:24:20;5.00;;;4.45;;
41713;SDS011;27401;47.384;13.666;2023-08-21T00:26:46;6.22;;;4.47;;
41713;SDS011;27401;47.384;13.666;2023-08-21T00:29:11;4.60;;;4.28;;
41713;SDS011;27401;47.384;13.666;2023-08-21T00:31:37;5.88;;;5.10;;
41713;SDS011;27401;47.384;13.666;2023-08-21T00:34:03;6.07;;;5.35;;
41713;SDS011;27401;47.384;13.666;2023-08-21T00:36:28;5.40;;;4.97;;
41713;SDS011;27401;47.384;13.666;2023-08-21T00:38:54;5.53;;;5.13;;
41713;SDS011;27401;47.384;13.666;2023-08-21T00:41:19;5.15;;;4.65;;
41713;SDS011;27401;47.384;13.666;2023-08-21T00:43:45;5.30;;;4.80;;
41713;SDS011;27401;47.384;13.666;2023-08-21T00:46:10;5.10;;;4.57;;
41713;SDS011;27401;47.384;13.666;2023-08-21T00:48:36;12.52;;;5.55;;
41713;SDS011;27401;47.384;13.666;2023-08-21T00:51:03;4.93;;;4.53;;
41713;SDS011;27401;47.384;13.666;2023-08-21T00:53:29;4.90;;;4.60;;
41713;SDS011;27401;47.384;13.666;2023-08-21T00:55:55;4.78;;;4.25;;
41713;SDS011;27401;47.384;13.666;2023-08-21T00:58:20;4.65;;;4.03;;
41713;SDS011;27401;47.384;13.666;2023-08-21T01:00:46;5.40;;;4.60;;
41713;SDS011;27401;47.384;13.666;2023-08-21T01:03:15;5.63;;;5.22;;
41713;SDS011;27401;47.384;13.666;2023-08-21T01:05:41;6.05;;;4.85;;
41713;SDS011;27401;47.384;13.666;2023-08-21T01:08:11;5.20;;;4.80;;
41713;SDS011;27401;47.384;13.666;2023-08-21T01:11:02;5.45;;;4.95;;
41713;SDS011;27401;47.384;13.666;2023-08-21T01:13:47;4.97;;;4.57;;
41713;SDS011;27401;47.384;13.666;2023-08-21T01:16:21;6.07;;;5.03;;
41713;SDS011;27401;47.384;13.666;2023-08-21T01:18:47;6.75;;;4.60;;
41713;SDS011;27401;47.384;13.666;2023-08-21T01:21:14;4.65;;;4.25;;
41713;SDS011;27401;47.384;13.666;2023-08-21T01:23:40;5.38;;;4.97;;
41713;SDS011;27401;47.384;13.666;2023-08-21T01:26:07;6.63;;;4.70;;
41713;SDS011;27401;47.384;13.666;2023-08-21T01:28:33;5.10;;;4.60;;
41713;SDS011;27401;47.384;13.666;2023-08-21T01:31:18;4.97;;;4.57;;
41713;SDS011;27401;47.384;13.666;2023-08-21T01:33:48;6.20;;;5.60;;
41713;SDS011;27401;47.384;13.666;2023-08-21T01:36:16;5.55;;;5.03;;
41713;SDS011;27401;47.384;13.666;2023-08-21T01:38:42;4.88;;;4.40;;
41713;SDS011;27401;47.384;13.666;2023-08-21T01:41:10;4.70;;;4.35;;
41713;SDS011;27401;47.384;13.666;2023-08-21T01:43:37;5.28;;;4.88;;
41713;SDS011;27401;47.384;13.666;2023-08-21T01:46:03;6.28;;;4.82;;
41713;SDS011;27401;47.384;13.666;2023-08-21T01:48:29;5.72;;;5.07;;
41713;SDS011;27401;47.384;13.666;2023-08-21T01:50:54;5.20;;;4.78;;
41713;SDS011;27401;47.384;13.666;2023-08-21T01:53:21;5.10;;;4.70;;
41713;SDS011;27401;47.384;13.666;2023-08-21T01:55:46;5.90;;;4.43;;
41713;SDS011;27401;47.384;13.666;2023-08-21T01:58:12;4.32;;;4.03;;
41713;SDS011;27401;47.384;13.666;2023-08-21T02:00:37;4.60;;;4.18;;
41713;SDS011;27401;47.384;13.666;2023-08-21T02:03:03;4.55;;;4.15;;
41713;SDS011;27401;47.384;13.666;2023-08-21T02:05:29;4.70;;;4.30;;
41713;SDS011;27401;47.384;13.666;2023-08-21T02:07:54;5.35;;;4.90;;
41713;SDS011;27401;47.384;13.666;2023-08-21T02:10:20;4.07;;;3.78;;
41713;SDS011;27401;47.384;13.666;2023-08-21T02:12:45;4.50;;;4.10;;
41713;SDS011;27401;47.384;13.666;2023-08-21T02:15:11;5.25;;;4.43;;
41713;SDS011;27401;47.384;13.666;2023-08-21T02:17:37;4.40;;;4.07;;
41713;SDS011;27401;47.384;13.666;2023-08-21T02:20:02;4.75;;;4.35;;
41713;SDS011;27401;47.384;13.666;2023-08-21T02:22:28;5.00;;;4.50;;
41713;SDS011;27401;47.384;13.666;2023-08-21T02:24:54;4.72;;;4.32;;
41713;SDS011;27401;47.384;13.666;2023-08-21T02:27:19;5.00;;;4.60;;
41713;SDS011;27401;47.384;13.666;2023-08-21T02:29:46;5.55;;;4.10;;
41713;SDS011;27401;47.384;13.666;2023-08-21T02:32:11;4.85;;;4.43;;
41713;SDS011;27401;47.384;13.666;2023-08-21T02:34:38;4.75;;;4.45;;
41713;SDS011;27401;47.384;13.666;2023-08-21T02:37:04;4.60;;;4.20;;
41713;SDS011;27401;47.384;13.666;2023-08-21T02:39:30;5.57;;;4.80;;
41713;SDS011;27401;47.384;13.666;2023-08-21T02:41:55;5.22;;;4.10;;
41713;SDS011;27401;47.384;13.666;2023-08-21T02:44:21;4.50;;;4.20;;
41713;SDS011;27401;47.384;13.666;2023-08-21T02:46:46;4.88;;;4.47;;
41713;SDS011;27401;47.384;13.666;2023-08-21T02:49:12;4.85;;;4.40;;
41713;SDS011;27401;47.384;13.666;2023-08-21T02:51:38;5.35;;;4.60;;
41713;SDS011;27401;47.384;13.666;2023-08-21T02:54:04;6.53;;;4.60;;
41713;SDS011;27401;47.384;13.666;2023-08-21T02:56:29;5.22;;;4.28;;
41713;SDS011;27401;47.384;13.666;2023-08-21T02:58:55;5.07;;;4.57;;
41713;SDS011;27401;47.384;13.666;2023-08-21T03:01:20;4.95;;;4.55;;
41713;SDS011;27401;47.384;13.666;2023-08-21T03:03:46;5.00;;;4.63;;
41713;SDS011;27401;47.384;13.666;2023-08-21T03:06:11;5.13;;;4.65;;
41713;SDS011;27401;47.384;13.666;2023-08-21T03:08:37;5.20;;;4.70;;
41713;SDS011;27401;47.384;13.666;2023-08-21T03:11:02;4.95;;;4.55;;
41713;SDS011;27401;47.384;13.666;2023-08-21T03:13:28;5.00;;;4.60;;
41713;SDS011;27401;47.384;13.666;2023-08-21T03:15:54;5.18;;;4.57;;
41713;SDS011;27401;47.384;13.666;2023-08-21T03:18:19;4.90;;;4.40;;
41713;SDS011;27401;47.384;13.666;2023-08-21T03:20:45;4.75;;;4.05;;
41713;SDS011;27401;47.384;13.666;2023-08-21T03:23:12;4.82;;;4.43;;
41713;SDS011;27401;47.384;13.666;2023-08-21T03:25:38;4.57;;;3.97;;
41713;SDS011;27401;47.384;13.666;2023-08-21T03:28:03;5.22;;;4.72;;
41713;SDS011;27401;47.384;13.666;2023-08-21T03:30:29;4.57;;;4.28;;
41713;SDS011;27401;47.384;13.666;2023-08-21T03:32:55;5.43;;;5.03;;
41713;SDS011;27401;47.384;13.666;2023-08-21T03:35:20;5.82;;;5.32;;
41713;SDS011;27401;47.384;13.666;2023-08-21T03:37:47;5.05;;;4.55;;
41713;SDS011;27401;47.384;13.666;2023-08-21T03:40:14;5.13;;;4.72;;
41713;SDS011;27401;47.384;13.666;2023-08-21T03:42:40;4.43;;;3.97;;
41713;SDS011;27401;47.384;13.666;2023-08-21T03:45:08;5.30;;;4.28;;
41713;SDS011;27401;47.384;13.666;2023-08-21T03:47:33;4.95;;;4.45;;
41713;SDS011;27401;47.384;13.666;2023-08-21T03:50:04;5.03;;;4.63;;
41713;SDS011;27401;47.384;13.666;2023-08-21T03:52:30;5.70;;;4.63;;
41713;SDS011;27401;47.384;13.666;2023-08-21T03:54:56;8.95;;;5.20;;
41713;SDS011;27401;47.384;13.666;2023-08-21T03:57:21;5.20;;;4.80;;
41713;SDS011;27401;47.384;13.666;2023-08-21T03:59:47;5.10;;;4.70;;
41713;SDS011;27401;47.384;13.666;2023-08-21T04:02:12;5.40;;;4.95;;
41713;SDS011;27401;47.384;13.666;2023-08-21T04:04:38;4.88;;;4.47;;
41713;SDS011;27401;47.384;13.666;2023-08-21T04:07:03;5.65;;;5.07;;
41713;SDS011;27401;47.384;13.666;2023-08-21T04:09:29;4.90;;;4.40;;
41713;SDS011;27401;47.384;13.666;2023-08-21T04:11:55;5.65;;;5.15;;
41713;SDS011;27401;47.384;13.666;2023-08-21T04:14:20;5.05;;;4.43;;
41713;SDS011;27401;47.384;13.666;2023-08-21T04:16:46;5.38;;;4.78;;
41713;SDS011;27401;47.384;13.666;2023-08-21T04:19:12;5.63;;;4.93;;
41713;SDS011;27401;47.384;13.666;2023-08-21T04:21:37;5.03;;;4.63;;
41713;SDS011;27401;47.384;13.666;2023-08-21T04:24:03;6.05;;;5.07;;
41713;SDS011;27401;47.384;13.666;2023-08-21T04:26:28;6.82;;;5.20;;
41713;SDS011;27401;47.384;13.666;2023-08-21T04:28:54;5.10;;;4.68;;
41713;SDS011;27401;47.384;13.666;2023-08-21T04:31:19;5.13;;;4.68;;
41713;SDS011;27401;47.384;13.666;2023-08-21T04:33:47;4.97;;;4.57;;
41713;SDS011;27401;47.384;13.666;2023-08-21T04:36:14;4.70;;;4.30;;
41713;SDS011;27401;47.384;13.666;2023-08-21T04:38:41;5.13;;;4.55;;
41713;SDS011;27401;47.384;13.666;2023-08-21T04:41:07;4.65;;;4.10;;
41713;SDS011;27401;47.384;13.666;2023-08-21T04:43:33;4.63;;;4.22;;
41713;SDS011;27401;47.384;13.666;2023-08-21T04:45:59;4.45;;;4.05;;
41713;SDS011;27401;47.384;13.666;2023-08-21T04:48:27;4.10;;;3.78;;
41713;SDS011;27401;47.384;13.666;2023-08-21T04:50:52;4.30;;;4.00;;
41713;SDS011;27401;47.384;13.666;2023-08-21T04:53:18;4.35;;;4.05;;
41713;SDS011;27401;47.384;13.666;2023-08-21T04:55:44;4.95;;;4.50;;
41713;SDS011;27401;47.384;13.666;2023-08-21T04:58:09;5.28;;;4.68;;
41713;SDS011;27401;47.384;13.666;2023-08-21T05:00:35;4.90;;;4.22;;
41713;SDS011;27401;47.384;13.666;2023-08-21T05:03:01;4.82;;;4.13;;
41713;SDS011;27401;47.384;13.666;2023-08-21T05:05:27;5.88;;;4.43;;
41713;SDS011;27401;47.384;13.666;2023-08-21T05:07:53;6.18;;;4.20;;
41713;SDS011;27401;47.384;13.666;2023-08-21T05:10:19;5.18;;;4.32;;
41713;SDS011;27401;47.384;13.666;2023-08-21T05:12:45;4.63;;;4.22;;
41713;SDS011;27401;47.384;13.666;2023-08-21T05:15:11;5.35;;;4.53;;
41713;SDS011;27401;47.384;13.666;2023-08-21T05:17:37;4.65;;;4.13;;
41713;SDS011;27401;47.384;13.666;2023-08-21T05:20:03;5.30;;;4.57;;
41713;SDS011;27401;47.384;13.666;2023-08-21T05:22:29;4.38;;;3.97;;
41713;SDS011;27401;47.384;13.666;2023-08-21T05:24:55;5.35;;;4.32;;
41713;SDS011;27401;47.384;13.666;2023-08-21T05:27:21;4.03;;;3.72;;
41713;SDS011;27401;47.384;13.666;2023-08-21T05:29:46;5.47;;;4.22;;
41713;SDS011;27401;47.384;13.666;2023-08-21T05:32:12;3.90;;;3.60;;
41713;SDS011;27401;47.384;13.666;2023-08-21T05:34:38;4.70;;;4.00;;
41713;SDS011;27401;47.384;13.666;2023-08-21T05:37:04;3.63;;;3.40;;
41713;SDS011;27401;47.384;13.666;2023-08-21T05:39:30;3.90;;;3.20;;
41713;SDS011;27401;47.384;13.666;2023-08-21T05:41:55;5.38;;;3.72;;
41713;SDS011;27401;47.384;13.666;2023-08-21T05:44:21;5.07;;;3.55;;
41713;SDS011;27401;47.384;13.666;2023-08-21T05:46:47;4.00;;;3.08;;
41713;SDS011;27401;47.384;13.666;2023-08-21T05:49:12;8.38;;;4.03;;
41713;SDS011;27401;47.384;13.666;2023-08-21T05:51:38;5.57;;;3.83;;
41713;SDS011;27401;47.384;13.666;2023-08-21T05:54:03;3.60;;;3.30;;
41713;SDS011;27401;47.384;13.666;2023-08-21T05:56:29;4.57;;;3.55;;
41713;SDS011;27401;47.384;13.666;2023-08-21T05:58:55;3.65;;;3.35;;
41713;SDS011;27401;47.384;13.666;2023-08-21T06:01:23;4.50;;;3.50;;
41713;SDS011;27401;47.384;13.666;2023-08-21T06:03:49;7.13;;;4.07;;
41713;SDS011;27401;47.384;13.666;2023-08-21T06:06:31;8.50;;;3.60;;
41713;SDS011;27401;47.384;13.666;2023-08-21T06:08:57;4.57;;;3.70;;
41713;SDS011;27401;47.384;13.666;2023-08-21T06:11:22;4.32;;;3.10;;
41713;SDS011;27401;47.384;13.666;2023-08-21T06:13:48;3.40;;;3.10;;
41713;SDS011;27401;47.384;13.666;2023-08-21T06:16:13;4.18;;;3.60;;
41713;SDS011;27401;47.384;13.666;2023-08-21T06:18:40;7.35;;;3.60;;
41713;SDS011;27401;47.384;13.666;2023-08-21T06:21:06;3.42;;;3.13;;
41713;SDS011;27401;47.384;13.666;2023-08-21T06:23:31;6.38;;;3.55;;
41713;SDS011;27401;47.384;13.666;2023-08-21T06:25:57;4.60;;;3.38;;
41713;SDS011;27401;47.384;13.666;2023-08-21T06:28:23;11.75;;;6.38;;
41713;SDS011;27401;47.384;13.666;2023-08-21T06:30:55;11.70;;;7.45;;
41713;SDS011;27401;47.384;13.666;2023-08-21T06:33:21;10.23;;;6.80;;
41713;SDS011;27401;47.384;13.666;2023-08-21T06:35:46;11.73;;;7.82;;
41713;SDS011;27401;47.384;13.666;2023-08-21T06:38:13;15.25;;;9.50;;
41713;SDS011;27401;47.384;13.666;2023-08-21T06:40:38;27.70;;;15.77;;
41713;SDS011;27401;47.384;13.666;2023-08-21T06:43:04;13.52;;;7.50;;
41713;SDS011;27401;47.384;13.666;2023-08-21T06:45:33;8.20;;;5.30;;
41713;SDS011;27401;47.384;13.666;2023-08-21T06:47:59;5.18;;;3.90;;
41713;SDS011;27401;47.384;13.666;2023-08-21T06:50:25;5.25;;;3.42;;
41713;SDS011;27401;47.384;13.666;2023-08-21T06:52:51;5.80;;;3.90;;
41713;SDS011;27401;47.384;13.666;2023-08-21T06:55:16;4.63;;;3.50;;
41713;SDS011;27401;47.384;13.666;2023-08-21T06:57:42;4.03;;;3.63;;
41713;SDS011;27401;47.384;13.666;2023-08-21T07:00:08;4.47;;;3.90;;
41713;SDS011;27401;47.384;13.666;2023-08-21T07:02:34;3.80;;;3.40;;
41713;SDS011;27401;47.384;13.666;2023-08-21T07:05:00;6.82;;;3.45;;
41713;SDS011;27401;47.384;13.666;2023-08-21T07:07:25;3.90;;;3.50;;
41713;SDS011;27401;47.384;13.666;2023-08-21T07:09:51;4.88;;;3.90;;
41713;SDS011;27401;47.384;13.666;2023-08-21T07:12:16;10.35;;;5.47;;
41713;SDS011;27401;47.384;13.666;2023-08-21T07:14:42;17.58;;;8.02;;
41713;SDS011;27401;47.384;13.666;2023-08-21T07:17:08;13.38;;;7.15;;
41713;SDS011;27401;47.384;13.666;2023-08-21T07:19:33;9.98;;;5.95;;
41713;SDS011;27401;47.384;13.666;2023-08-21T07:21:59;13.43;;;7.30;;
41713;SDS011;27401;47.384;13.666;2023-08-21T07:24:24;15.10;;;7.50;;
41713;SDS011;27401;47.384;13.666;2023-08-21T07:26:50;12.23;;;6.95;;
41713;SDS011;27401;47.384;13.666;2023-08-21T07:29:15;21.40;;;8.50;;
41713;SDS011;27401;47.384;13.666;2023-08-21T07:31:41;10.48;;;6.93;;
41713;SDS011;27401;47.384;13.666;2023-08-21T07:34:07;11.75;;;8.10;;
41713;SDS011;27401;47.384;13.666;2023-08-21T07:36:33;9.98;;;6.22;;
41713;SDS011;27401;47.384;13.666;2023-08-21T07:38:59;7.45;;;5.95;;
41713;SDS011;27401;47.384;13.666;2023-08-21T07:41:24;9.90;;;6.25;;
41713;SDS011;27401;47.384;13.666;2023-08-21T07:43:50;7.63;;;5.50;;
41713;SDS011;27401;47.384;13.666;2023-08-21T07:46:15;7.32;;;5.72;;
41713;SDS011;27401;47.384;13.666;2023-08-21T07:48:43;9.45;;;5.68;;
41713;SDS011;27401;47.384;13.666;2023-08-21T07:51:09;6.32;;;5.25;;
41713;SDS011;27401;47.384;13.666;2023-08-21T07:53:35;7.75;;;5.05;;
41713;SDS011;27401;47.384;13.666;2023-08-21T07:56:01;6.93;;;4.97;;
41713;SDS011;27401;47.384;13.666;2023-08-21T07:58:28;8.57;;;4.97;;
41713;SDS011;27401;47.384;13.666;2023-08-21T08:00:54;6.85;;;5.30;;
41713;SDS011;27401;47.384;13.666;2023-08-21T08:03:20;7.07;;;5.10;;
41713;SDS011;27401;47.384;13.666;2023-08-21T08:05:46;9.82;;;4.85;;
41713;SDS011;27401;47.384;13.666;2023-08-21T08:08:11;5.88;;;5.13;;
41713;SDS011;27401;47.384;13.666;2023-08-21T08:10:37;8.23;;;5.18;;
41713;SDS011;27401;47.384;13.666;2023-08-21T08:13:04;7.90;;;4.32;;
41713;SDS011;27401;47.384;13.666;2023-08-21T08:15:30;5.93;;;4.93;;
41713;SDS011;27401;47.384;13.666;2023-08-21T08:17:55;6.68;;;4.97;;
41713;SDS011;27401;47.384;13.666;2023-08-21T08:20:21;5.20;;;4.28;;
41713;SDS011;27401;47.384;13.666;2023-08-21T08:22:46;10.27;;;4.68;;
41713;SDS011;27401;47.384;13.666;2023-08-21T08:25:12;6.43;;;5.28;;
41713;SDS011;27401;47.384;13.666;2023-08-21T08:27:39;8.07;;;5.05;;
41713;SDS011;27401;47.384;13.666;2023-08-21T08:30:05;4.63;;;4.20;;
41713;SDS011;27401;47.384;13.666;2023-08-21T08:32:31;7.38;;;5.18;;
41713;SDS011;27401;47.384;13.666;2023-08-21T08:34:57;7.00;;;4.53;;
41713;SDS011;27401;47.384;13.666;2023-08-21T08:37:22;6.05;;;4.28;;
41713;SDS011;27401;47.384;13.666;2023-08-21T08:39:48;5.50;;;4.88;;
41713;SDS011;27401;47.384;13.666;2023-08-21T08:42:14;5.50;;;4.95;;
41713;SDS011;27401;47.384;13.666;2023-08-21T08:44:41;6.05;;;4.72;;
41713;SDS011;27401;47.384;13.666;2023-08-21T08:47:10;4.97;;;4.68;;
41713;SDS011;27401;47.384;13.666;2023-08-21T08:49:36;5.40;;;4.57;;
41713;SDS011;27401;47.384;13.666;2023-08-21T08:52:02;7.40;;;5.00;;
41713;SDS011;27401;47.384;13.666;2023-08-21T08:54:29;5.65;;;5.10;;
41713;SDS011;27401;47.384;13.666;2023-08-21T08:56:55;5.40;;;4.45;;
41713;SDS011;27401;47.384;13.666;2023-08-21T08:59:20;5.93;;;4.28;;
41713;SDS011;27401;47.384;13.666;2023-08-21T09:01:46;6.95;;;5.45;;
41713;SDS011;27401;47.384;13.666;2023-08-21T09:04:11;6.03;;;5.18;;
41713;SDS011;27401;47.384;13.666;2023-08-21T09:06:37;7.03;;;5.00;;
41713;SDS011;27401;47.384;13.666;2023-08-21T09:09:03;9.85;;;5.25;;
41713;SDS011;27401;47.384;13.666;2023-08-21T09:11:29;5.25;;;4.70;;
41713;SDS011;27401;47.384;13.666;2023-08-21T09:13:55;7.03;;;5.20;;
41713;SDS011;27401;47.384;13.666;2023-08-21T09:16:21;5.70;;;4.38;;
41713;SDS011;27401;47.384;13.666;2023-08-21T09:18:54;4.85;;;4.45;;
41713;SDS011;27401;47.384;13.666;2023-08-21T09:21:24;8.90;;;4.70;;
41713;SDS011;27401;47.384;13.666;2023-08-21T09:24:01;5.15;;;4.68;;
41713;SDS011;27401;47.384;13.666;2023-08-21T09:26:33;4.60;;;4.30;;
41713;SDS011;27401;47.384;13.666;2023-08-21T09:28:59;5.50;;;4.97;;
41713;SDS011;27401;47.384;13.666;2023-08-21T09:31:29;5.53;;;4.70;;
41713;SDS011;27401;47.384;13.666;2023-08-21T09:33:56;5.30;;;4.90;;
41713;SDS011;27401;47.384;13.666;2023-08-21T09:36:32;6.43;;;4.55;;
41713;SDS011;27401;47.384;13.666;2023-08-21T09:38:58;5.22;;;4.45;;
41713;SDS011;27401;47.384;13.666;2023-08-21T09:41:25;4.88;;;4.53;;
41713;SDS011;27401;47.384;13.666;2023-08-21T09:43:50;7.18;;;4.45;;
41713;SDS011;27401;47.384;13.666;2023-08-21T09:46:16;4.90;;;4.50;;
41713;SDS011;27401;47.384;13.666;2023-08-21T09:48:48;4.53;;;4.13;;
41713;SDS011;27401;47.384;13.666;2023-08-21T09:51:14;4.07;;;3.78;;
41713;SDS011;27401;47.384;13.666;2023-08-21T09:53:40;6.20;;;4.60;;
41713;SDS011;27401;47.384;13.666;2023-08-21T09:56:06;4.72;;;4.30;;
41713;SDS011;27401;47.384;13.666;2023-08-21T09:58:32;4.82;;;4.25;;
41713;SDS011;27401;47.384;13.666;2023-08-21T10:00:58;5.47;;;4.90;;
41713;SDS011;27401;47.384;13.666;2023-08-21T10:03:25;6.80;;;5.13;;
41713;SDS011;27401;47.384;13.666;2023-08-21T10:05:51;5.80;;;4.82;;
41713;SDS011;27401;47.384;13.666;2023-08-21T10:08:24;7.97;;;5.28;;
41713;SDS011;27401;47.384;13.666;2023-08-21T10:10:51;7.68;;;5.20;;
41713;SDS011;27401;47.384;13.666;2023-08-21T10:13:16;5.97;;;4.50;;
41713;SDS011;27401;47.384;13.666;2023-08-21T10:15:42;5.97;;;5.03;;
41713;SDS011;27401;47.384;13.666;2023-08-21T10:18:18;5.47;;;4.95;;
41713;SDS011;27401;47.384;13.666;2023-08-21T10:20:45;4.95;;;4.55;;
41713;SDS011;27401;47.384;13.666;2023-08-21T10:23:10;6.45;;;5.43;;
41713;SDS011;27401;47.384;13.666;2023-08-21T10:25:51;5.25;;;4.75;;
41713;SDS011;27401;47.384;13.666;2023-08-21T10:28:21;5.93;;;4.75;;
41713;SDS011;27401;47.384;13.666;2023-08-21T10:30:47;6.90;;;5.03;;
41713;SDS011;27401;47.384;13.666;2023-08-21T10:33:12;6.10;;;4.97;;
41713;SDS011;27401;47.384;13.666;2023-08-21T10:35:38;5.53;;;4.72;;
41713;SDS011;27401;47.384;13.666;2023-08-21T10:38:07;8.45;;;4.60;;
41713;SDS011;27401;47.384;13.666;2023-08-21T10:40:41;6.28;;;4.65;;
41713;SDS011;27401;47.384;13.666;2023-08-21T10:43:41;6.43;;;5.22;;
41713;SDS011;27401;47.384;13.666;2023-08-21T10:46:09;5.50;;;5.00;;
41713;SDS011;27401;47.384;13.666;2023-08-21T10:48:35;5.45;;;4.65;;
41713;SDS011;27401;47.384;13.666;2023-08-21T10:51:02;6.30;;;4.57;;
41713;SDS011;27401;47.384;13.666;2023-08-21T10:53:31;4.90;;;4.50;;
41713;SDS011;27401;47.384;13.666;2023-08-21T10:56:04;7.88;;;4.80;;
41713;SDS011;27401;47.384;13.666;2023-08-21T10:58:34;6.63;;;4.70;;
41713;SDS011;27401;47.384;13.666;2023-08-21T11:01:12;4.93;;;4.28;;
41713;SDS011;27401;47.384;13.666;2023-08-21T11:03:38;13.02;;;4.72;;
41713;SDS011;27401;47.384;13.666;2023-08-21T11:06:08;16.20;;;6.15;;
41713;SDS011;27401;47.384;13.666;2023-08-21T11:08:34;120.85;;;25.95;;
41713;SDS011;27401;47.384;13.666;2023-08-21T11:11:04;55.20;;;13.30;;
41713;SDS011;27401;47.384;13.666;2023-08-21T11:13:30;42.00;;;11.63;;
41713;SDS011;27401;47.384;13.666;2023-08-21T11:15:59;42.10;;;11.85;;
41713;SDS011;27401;47.384;13.666;2023-08-21T11:18:29;33.30;;;9.85;;
41713;SDS011;27401;47.384;13.666;2023-08-21T11:23:34;22.17;;;7.65;;
41713;SDS011;27401;47.384;13.666;2023-08-21T11:26:01;10.75;;;6.10;;
41713;SDS011;27401;47.384;13.666;2023-08-21T11:28:29;11.93;;;6.95;;
41713;SDS011;27401;47.384;13.666;2023-08-21T11:30:55;7.35;;;5.63;;
41713;SDS011;27401;47.384;13.666;2023-08-21T11:33:21;8.57;;;5.90;;
41713;SDS011;27401;47.384;13.666;2023-08-21T11:35:47;8.65;;;5.97;;
41713;SDS011;27401;47.384;13.666;2023-08-21T11:38:19;8.65;;;5.22;;
41713;SDS011;27401;47.384;13.666;2023-08-21T11:40:55;10.82;;;5.47;;
41713;SDS011;27401;47.384;13.666;2023-08-21T11:43:33;10.10;;;5.15;;
41713;SDS011;27401;47.384;13.666;2023-08-21T11:46:00;6.28;;;4.60;;
41713;SDS011;27401;47.384;13.666;2023-08-21T11:48:27;6.57;;;4.82;;
41713;SDS011;27401;47.384;13.666;2023-08-21T11:50:54;5.13;;;4.63;;
41713;SDS011;27401;47.384;13.666;2023-08-21T11:53:29;6.07;;;4.80;;
41713;SDS011;27401;47.384;13.666;2023-08-21T11:56:00;4.82;;;4.43;;
41713;SDS011;27401;47.384;13.666;2023-08-21T11:58:28;5.15;;;4.70;;
41713;SDS011;27401;47.384;13.666;2023-08-21T12:00:54;5.10;;;4.63;;
41713;SDS011;27401;47.384;13.666;2023-08-21T12:03:19;5.20;;;4.50;;
41713;SDS011;27401;47.384;13.666;2023-08-21T12:05:45;5.60;;;4.55;;
41713;SDS011;27401;47.384;13.666;2023-08-21T12:08:11;5.43;;;4.35;;
41713;SDS011;27401;47.384;13.666;2023-08-21T12:10:36;8.20;;;4.70;;
41713;SDS011;27401;47.384;13.666;2023-08-21T12:13:02;4.88;;;4.45;;
41713;SDS011;27401;47.384;13.666;2023-08-21T12:15:28;4.78;;;4.30;;
41713;SDS011;27401;47.384;13.666;2023-08-21T12:17:53;5.90;;;3.95;;
41713;SDS011;27401;47.384;13.666;2023-08-21T12:20:19;5.38;;;4.35;;
41713;SDS011;27401;47.384;13.666;2023-08-21T12:22:45;4.65;;;4.25;;
41713;SDS011;27401;47.384;13.666;2023-08-21T12:25:11;5.10;;;4.40;;
41713;SDS011;27401;47.384;13.666;2023-08-21T12:27:38;4.80;;;4.40;;
41713;SDS011;27401;47.384;13.666;2023-08-21T12:30:04;6.85;;;4.00;;
41713;SDS011;27401;47.384;13.666;2023-08-21T12:32:30;8.45;;;3.97;;
41713;SDS011;27401;47.384;13.666;2023-08-21T12:34:56;5.28;;;4.22;;
41713;SDS011;27401;47.384;13.666;2023-08-21T12:37:21;6.78;;;3.92;;
41713;SDS011;27401;47.384;13.666;2023-08-21T12:39:47;5.65;;;3.95;;
41713;SDS011;27401;47.384;13.666;2023-08-21T12:42:13;10.75;;;4.00;;
41713;SDS011;27401;47.384;13.666;2023-08-21T12:44:38;8.82;;;3.45;;
41713;SDS011;27401;47.384;13.666;2023-08-21T12:47:04;4.60;;;3.03;;
41713;SDS011;27401;47.384;13.666;2023-08-21T12:49:29;4.78;;;3.00;;
41713;SDS011;27401;47.384;13.666;2023-08-21T12:51:55;4.53;;;2.95;;
41713;SDS011;27401;47.384;13.666;2023-08-21T12:54:21;5.30;;;2.92;;
41713;SDS011;27401;47.384;13.666;2023-08-21T12:56:46;4.40;;;2.58;;
41713;SDS011;27401;47.384;13.666;2023-08-21T12:59:12;7.10;;;2.60;;
41713;SDS011;27401;47.384;13.666;2023-08-21T13:01:38;5.95;;;2.72;;
41713;SDS011;27401;47.384;13.666;2023-08-21T13:04:04;4.90;;;2.67;;
41713;SDS011;27401;47.384;13.666;2023-08-21T13:06:30;3.75;;;2.58;;
41713;SDS011;27401;47.384;13.666;2023-08-21T13:08:55;3.72;;;2.40;;
41713;SDS011;27401;47.384;13.666;2023-08-21T13:11:21;6.65;;;2.88;;
41713;SDS011;27401;47.384;13.666;2023-08-21T13:13:47;3.72;;;2.00;;
41713;SDS011;27401;47.384;13.666;2023-08-21T13:16:12;6.45;;;2.70;;
41713;SDS011;27401;47.384;13.666;2023-08-21T13:18:38;4.97;;;2.20;;
41713;SDS011;27401;47.384;13.666;2023-08-21T13:21:04;6.93;;;2.10;;
41713;SDS011;27401;47.384;13.666;2023-08-21T13:23:29;3.65;;;2.25;;
41713;SDS011;27401;47.384;13.666;2023-08-21T13:25:56;5.22;;;2.30;;
41713;SDS011;27401;47.384;13.666;2023-08-21T13:28:25;5.38;;;2.55;;
41713;SDS011;27401;47.384;13.666;2023-08-21T13:30:50;3.33;;;2.10;;
41713;SDS011;27401;47.384;13.666;2023-08-21T13:33:18;5.07;;;2.28;;
41713;SDS011;27401;47.384;13.666;2023-08-21T13:35:44;5.28;;;2.33;;
41713;SDS011;27401;47.384;13.666;2023-08-21T13:38:10;5.05;;;2.88;;
41713;SDS011;27401;47.384;13.666;2023-08-21T13:40:37;4.93;;;2.17;;
41713;SDS011;27401;47.384;13.666;2023-08-21T13:43:03;5.43;;;2.33;;
41713;SDS011;27401;47.384;13.666;2023-08-21T13:45:28;5.35;;;2.25;;
41713;SDS011;27401;47.384;13.666;2023-08-21T13:47:54;4.97;;;2.55;;
41713;SDS011;27401;47.384;13.666;2023-08-21T13:50:19;4.35;;;2.97;;
41713;SDS011;27401;47.384;13.666;2023-08-21T13:52:46;6.70;;;2.92;;
41713;SDS011;27401;47.384;13.666;2023-08-21T13:55:12;6.50;;;2.70;;
41713;SDS011;27401;47.384;13.666;2023-08-21T13:57:38;4.88;;;2.83;;
41713;SDS011;27401;47.384;13.666;2023-08-21T14:00:04;6.82;;;2.92;;
41713;SDS011;27401;47.384;13.666;2023-08-21T14:02:37;5.10;;;2.60;;
41713;SDS011;27401;47.384;13.666;2023-08-21T14:05:03;4.35;;;2.95;;
41713;SDS011;27401;47.384;13.666;2023-08-21T14:07:33;3.38;;;2.35;;
41713;SDS011;27401;47.384;13.666;2023-08-21T14:09:59;6.68;;;2.63;;
41713;SDS011;27401;47.384;13.666;2023-08-21T14:12:25;3.80;;;2.45;;
41713;SDS011;27401;47.384;13.666;2023-08-21T14:14:50;2.60;;;2.40;;
41713;SDS011;27401;47.384;13.666;2023-08-21T14:17:16;3.97;;;2.78;;
41713;SDS011;27401;47.384;13.666;2023-08-21T14:19:42;4.80;;;2.60;;
41713;SDS011;27401;47.384;13.666;2023-08-21T14:22:08;5.25;;;2.88;;
41713;SDS011;27401;47.384;13.666;2023-08-21T14:24:33;6.72;;;2.38;;
41713;SDS011;27401;47.384;13.666;2023-08-21T14:26:59;8.57;;;2.70;;
41713;SDS011;27401;47.384;13.666;2023-08-21T14:29:24;7.18;;;4.05;;
41713;SDS011;27401;47.384;13.666;2023-08-21T14:31:50;6.78;;;2.72;;